sensor_id;sensor_type;location;lat;lon;timestamp;pressure;altitude;pressure_sealevel;temperature;humidity
6034;BME280;3045;43.226;27.858;2024-01-11T00:00:45;145381.19;;;-2.77;100.00
6034;BME280;3045;43.226;27.858;2024-01-11T00:03:12;145354.91;;;-2.88;100.00
6034;BME280;3045;43.226;27.858;2024-01-11T00:05:41;145371.19;;;-2.81;100.00
6034;BME280;3045;43.226;27.858;2024-01-11T00:08:08;145389.94;;;-2.73;100.00
6034;BME280;3045;43.226;27.858;2024-01-11T00:10:36;145391.19;;;-2.73;100.00
6034;BME280;3045;43.226;27.858;2024-01-11T00:13:03;145409.91;;;-2.65;100.00
6034;BME280;3045;43.226;27.858;2024-01-11T00:15:30;145402.44;;;-2.68;100.00
6034;BME280;3045;43.226;27.858;2024-01-11T00:17:59;145396.16;;;-2.71;100.00
6034;BME280;3045;43.226;27.858;2024-01-11T00:20:26;145361.19;;;-2.85;100.00
6034;BME280;3045;43.226;27.858;2024-01-11T00:22:53;145392.44;;;-2.72;100.00
6034;BME280;3045;43.226;27.858;2024-01-11T00:25:20;145362.47;;;-2.85;100.00
6034;BME280;3045;43.226;27.858;2024-01-11T00:27:47;145397.41;;;-2.70;100.00
6034;BME280;3045;43.226;27.858;2024-01-11T00:30:14;145369.94;;;-2.82;100.00
6034;BME280;3045;43.226;27.858;2024-01-11T00:32:42;145377.41;;;-2.79;100.00
6034;BME280;3045;43.226;27.858;2024-01-11T00:35:10;145383.69;;;-2.76;100.00
6034;BME280;3045;43.226;27.858;2024-01-11T00:37:37;145381.19;;;-2.77;100.00
6034;BME280;3045;43.226;27.858;2024-01-11T00:40:07;145386.16;;;-2.75;100.00
6034;BME280;3045;43.226;27.858;2024-01-11T00:42:34;145337.44;;;-2.95;100.00
6034;BME280;3045;43.226;27.858;2024-01-11T00:45:01;145278.75;;;-3.18;100.00
6034;BME280;3045;43.226;27.858;2024-01-11T00:47:28;145341.22;;;-2.93;100.00
6034;BME280;3045;43.226;27.858;2024-01-11T00:49:55;145328.72;;;-2.98;100.00
6034;BME280;3045;43.226;27.858;2024-01-11T00:52:24;145336.19;;;-2.95;100.00
6034;BME280;3045;43.226;27.858;2024-01-11T00:54:51;145353.66;;;-2.88;100.00
6034;BME280;3045;43.226;27.858;2024-01-11T00:57:18;145334.94;;;-2.96;100.00
6034;BME280;3045;43.226;27.858;2024-01-11T00:59:45;145352.47;;;-2.89;100.00
6034;BME280;3045;43.226;27.858;2024-01-11T01:02:12;145364.91;;;-2.84;100.00
6034;BME280;3045;43.226;27.858;2024-01-11T01:04:39;145351.22;;;-2.89;100.00
6034;BME280;3045;43.226;27.858;2024-01-11T01:07:06;145322.44;;;-3.01;100.00
6034;BME280;3045;43.226;27.858;2024-01-11T01:09:35;145378.69;;;-2.78;100.00
6034;BME280;3045;43.226;27.858;2024-01-11T01:12:02;145391.19;;;-2.73;100.00
6034;BME280;3045;43.226;27.858;2024-01-11T01:14:29;145383.69;;;-2.76;100.00
6034;BME280;3045;43.226;27.858;2024-01-11T01:16:56;145394.91;;;-2.71;100.00
6034;BME280;3045;43.226;27.858;2024-01-11T01:19:23;145402.44;;;-2.68;100.00
6034;BME280;3045;43.226;27.858;2024-01-11T01:21:50;145393.69;;;-2.72;100.00
6034;BME280;3045;43.226;27.858;2024-01-11T01:24:17;145378.69;;;-2.78;100.00
6034;BME280;3045;43.226;27.858;2024-01-11T01:26:46;145344.94;;;-2.92;100.00
6034;BME280;3045;43.226;27.858;2024-01-11T01:29:13;145222.53;;;-3.41;100.00
6034;BME280;3045;43.226;27.858;2024-01-11T01:31:40;145339.97;;;-2.94;100.00
6034;BME280;3045;43.226;27.858;2024-01-11T01:34:07;145186.31;;;-3.56;100.00
6034;BME280;3045;43.226;27.858;2024-01-11T01:36:35;145251.25;;;-3.30;100.00
6034;BME280;3045;43.226;27.858;2024-01-11T01:39:02;145266.25;;;-3.24;100.00
6034;BME280;3045;43.226;27.858;2024-01-11T01:41:29;145286.25;;;-3.15;100.00
6034;BME280;3045;43.226;27.858;2024-01-11T01:43:58;145321.22;;;-3.01;100.00
6034;BME280;3045;43.226;27.858;2024-01-11T01:46:26;145338.69;;;-2.94;100.00
6034;BME280;3045;43.226;27.858;2024-01-11T01:48:57;145407.41;;;-2.66;100.00
6034;BME280;3045;43.226;27.858;2024-01-11T01:51:27;145446.19;;;-2.51;100.00
6034;BME280;3045;43.226;27.858;2024-01-11T01:53:56;145468.63;;;-2.42;100.00
6034;BME280;3045;43.226;27.858;2024-01-11T01:56:24;145517.41;;;-2.22;100.00
6034;BME280;3045;43.226;27.858;2024-01-11T01:58:51;145532.38;;;-2.16;100.00
6034;BME280;3045;43.226;27.858;2024-01-11T02:01:23;145538.66;;;-2.13;100.00
6034;BME280;3045;43.226;27.858;2024-01-11T02:03:50;145566.16;;;-2.02;100.00
6034;BME280;3045;43.226;27.858;2024-01-11T02:06:21;145572.44;;;-2.00;100.00
6034;BME280;3045;43.226;27.858;2024-01-11T02:08:49;145586.16;;;-1.94;100.00
6034;BME280;3045;43.226;27.858;2024-01-11T02:11:19;145598.66;;;-1.89;100.00
6034;BME280;3045;43.226;27.858;2024-01-11T02:13:47;145608.69;;;-1.85;100.00
6034;BME280;3045;43.226;27.858;2024-01-11T02:16:14;145578.66;;;-1.97;100.00
6034;BME280;3045;43.226;27.858;2024-01-11T02:18:43;145578.66;;;-1.97;100.00
6034;BME280;3045;43.226;27.858;2024-01-11T02:21:11;145543.66;;;-2.11;100.00
6034;BME280;3045;43.226;27.858;2024-01-11T02:23:43;145578.66;;;-1.97;95.31
6034;BME280;3045;43.226;27.858;2024-01-11T02:26:14;145577.41;;;-1.98;95.23
6034;BME280;3045;43.226;27.858;2024-01-11T02:28:44;145586.16;;;-1.94;96.04
6034;BME280;3045;43.226;27.858;2024-01-11T02:31:12;145571.19;;;-2.00;96.17
6034;BME280;3045;43.226;27.858;2024-01-11T02:33:41;145574.91;;;-1.99;95.58
6034;BME280;3045;43.226;27.858;2024-01-11T02:36:09;145576.16;;;-1.98;97.76
6034;BME280;3045;43.226;27.858;2024-01-11T02:38:36;145567.41;;;-2.02;94.29
6034;BME280;3045;43.226;27.858;2024-01-11T02:41:05;145556.16;;;-2.06;92.16
6034;BME280;3045;43.226;27.858;2024-01-11T02:43:34;145583.66;;;-1.95;96.17
6034;BME280;3045;43.226;27.858;2024-01-11T02:46:02;145578.66;;;-1.97;98.48
6034;BME280;3045;43.226;27.858;2024-01-11T02:48:30;145553.66;;;-2.07;100.00
6034;BME280;3045;43.226;27.858;2024-01-11T02:50:58;145512.38;;;-2.24;100.00
6034;BME280;3045;43.226;27.858;2024-01-11T02:53:25;145523.66;;;-2.19;100.00
6034;BME280;3045;43.226;27.858;2024-01-11T02:55:52;145472.41;;;-2.40;100.00
6034;BME280;3045;43.226;27.858;2024-01-11T02:58:19;145492.41;;;-2.32;100.00
6034;BME280;3045;43.226;27.858;2024-01-11T03:00:47;145472.41;;;-2.40;100.00
6034;BME280;3045;43.226;27.858;2024-01-11T03:03:14;145441.16;;;-2.53;100.00
6034;BME280;3045;43.226;27.858;2024-01-11T03:05:41;145457.44;;;-2.46;100.00
6034;BME280;3045;43.226;27.858;2024-01-11T03:08:08;145444.91;;;-2.51;100.00
6034;BME280;3045;43.226;27.858;2024-01-11T03:10:37;145436.19;;;-2.55;100.00
6034;BME280;3045;43.226;27.858;2024-01-11T03:13:05;145426.19;;;-2.59;100.00
6034;BME280;3045;43.226;27.858;2024-01-11T03:15:32;145361.19;;;-2.85;100.00
6034;BME280;3045;43.226;27.858;2024-01-11T03:18:01;145379.94;;;-2.78;100.00
6034;BME280;3045;43.226;27.858;2024-01-11T03:20:28;145383.69;;;-2.76;100.00
6034;BME280;3045;43.226;27.858;2024-01-11T03:22:55;145383.69;;;-2.76;100.00
6034;BME280;3045;43.226;27.858;2024-01-11T03:25:22;145354.91;;;-2.88;100.00
6034;BME280;3045;43.226;27.858;2024-01-11T03:27:49;145332.44;;;-2.97;100.00
6034;BME280;3045;43.226;27.858;2024-01-11T03:30:16;145327.47;;;-2.99;100.00
6034;BME280;3045;43.226;27.858;2024-01-11T03:32:43;145326.19;;;-2.99;100.00
6034;BME280;3045;43.226;27.858;2024-01-11T03:35:12;145277.50;;;-3.19;100.00
6034;BME280;3045;43.226;27.858;2024-01-11T03:37:39;145281.22;;;-3.17;100.00
6034;BME280;3045;43.226;27.858;2024-01-11T03:40:07;145303.72;;;-3.08;100.00
6034;BME280;3045;43.226;27.858;2024-01-11T03:42:34;145308.72;;;-3.06;100.00
6034;BME280;3045;43.226;27.858;2024-01-11T03:45:01;145312.44;;;-3.05;100.00
6034;BME280;3045;43.226;27.858;2024-01-11T03:47:28;145318.72;;;-3.02;100.00
6034;BME280;3045;43.226;27.858;2024-01-11T03:49:55;145343.69;;;-2.92;100.00
6034;BME280;3045;43.226;27.858;2024-01-11T03:52:24;145326.19;;;-2.99;100.00
6034;BME280;3045;43.226;27.858;2024-01-11T03:54:51;145322.44;;;-3.01;100.00
6034;BME280;3045;43.226;27.858;2024-01-11T03:57:18;145306.22;;;-3.07;100.00
6034;BME280;3045;43.226;27.858;2024-01-11T03:59:45;145329.97;;;-2.98;100.00
6034;BME280;3045;43.226;27.858;2024-01-11T04:02:12;145328.72;;;-2.98;100.00
6034;BME280;3045;43.226;27.858;2024-01-11T04:04:40;145291.22;;;-3.13;100.00
6034;BME280;3045;43.226;27.858;2024-01-11T04:07:08;145307.47;;;-3.07;100.00
6034;BME280;3045;43.226;27.858;2024-01-11T04:09:38;145279.97;;;-3.18;100.00
6034;BME280;3045;43.226;27.858;2024-01-11T04:12:06;145268.78;;;-3.22;100.00
6034;BME280;3045;43.226;27.858;2024-01-11T04:14:33;145297.50;;;-3.11;100.00
6034;BME280;3045;43.226;27.858;2024-01-11T04:17:00;145294.97;;;-3.12;100.00
6034;BME280;3045;43.226;27.858;2024-01-11T04:19:27;145268.78;;;-3.22;100.00
6034;BME280;3045;43.226;27.858;2024-01-11T04:21:54;145283.72;;;-3.16;100.00
6034;BME280;3045;43.226;27.858;2024-01-11T04:24:21;145287.50;;;-3.15;100.00
6034;BME280;3045;43.226;27.858;2024-01-11T04:26:50;145297.50;;;-3.11;100.00
6034;BME280;3045;43.226;27.858;2024-01-11T04:29:17;145313.69;;;-3.04;100.00
6034;BME280;3045;43.226;27.858;2024-01-11T04:31:44;145294.97;;;-3.12;100.00
6034;BME280;3045;43.226;27.858;2024-01-11T04:34:11;145289.94;;;-3.14;100.00
6034;BME280;3045;43.226;27.858;2024-01-11T04:36:38;145306.22;;;-3.07;100.00
6034;BME280;3045;43.226;27.858;2024-01-11T04:39:05;145300.00;;;-3.10;100.00
6034;BME280;3045;43.226;27.858;2024-01-11T04:41:34;145310.00;;;-3.06;100.00
6034;BME280;3045;43.226;27.858;2024-01-11T04:44:04;145327.47;;;-2.99;100.00
6034;BME280;3045;43.226;27.858;2024-01-11T04:46:31;145318.72;;;-3.02;100.00
6034;BME280;3045;43.226;27.858;2024-01-11T04:48:58;145314.97;;;-3.04;100.00
6034;BME280;3045;43.226;27.858;2024-01-11T04:51:25;145275.00;;;-3.20;100.00
6034;BME280;3045;43.226;27.858;2024-01-11T04:53:52;145311.19;;;-3.05;100.00
6034;BME280;3045;43.226;27.858;2024-01-11T04:56:19;145316.22;;;-3.03;100.00
6034;BME280;3045;43.226;27.858;2024-01-11T04:58:46;145316.22;;;-3.03;100.00
6034;BME280;3045;43.226;27.858;2024-01-11T05:01:16;145321.22;;;-3.01;100.00
6034;BME280;3045;43.226;27.858;2024-01-11T05:03:44;145312.44;;;-3.05;100.00
6034;BME280;3045;43.226;27.858;2024-01-11T05:06:15;145286.25;;;-3.15;100.00
6034;BME280;3045;43.226;27.858;2024-01-11T05:08:43;145218.78;;;-3.43;100.00
6034;BME280;3045;43.226;27.858;2024-01-11T05:11:15;145226.31;;;-3.40;100.00
6034;BME280;3045;43.226;27.858;2024-01-11T05:13:43;145225.06;;;-3.40;100.00
6034;BME280;3045;43.226;27.858;2024-01-11T05:16:18;145243.78;;;-3.33;100.00
6034;BME280;3045;43.226;27.858;2024-01-11T05:18:45;145248.75;;;-3.31;100.00
6034;BME280;3045;43.226;27.858;2024-01-11T05:21:12;145208.78;;;-3.47;100.00
6034;BME280;3045;43.226;27.858;2024-01-11T05:23:40;145206.28;;;-3.48;100.00
6034;BME280;3045;43.226;27.858;2024-01-11T05:26:07;145206.28;;;-3.48;100.00
6034;BME280;3045;43.226;27.858;2024-01-11T05:28:34;145223.78;;;-3.41;100.00
6034;BME280;3045;43.226;27.858;2024-01-11T05:31:02;145191.31;;;-3.54;100.00
6034;BME280;3045;43.226;27.858;2024-01-11T05:33:30;145230.03;;;-3.38;100.00
6034;BME280;3045;43.226;27.858;2024-01-11T05:35:57;145218.78;;;-3.43;100.00
6034;BME280;3045;43.226;27.858;2024-01-11T05:38:24;145248.75;;;-3.31;100.00
6034;BME280;3045;43.226;27.858;2024-01-11T05:40:51;145272.47;;;-3.21;100.00
6034;BME280;3045;43.226;27.858;2024-01-11T05:43:18;145257.53;;;-3.27;100.00
6034;BME280;3045;43.226;27.858;2024-01-11T05:45:45;145265.00;;;-3.24;100.00
6034;BME280;3045;43.226;27.858;2024-01-11T05:48:12;145256.28;;;-3.28;100.00
6034;BME280;3045;43.226;27.858;2024-01-11T05:50:41;145291.22;;;-3.13;100.00
6034;BME280;3045;43.226;27.858;2024-01-11T05:53:08;145311.19;;;-3.05;100.00
6034;BME280;3045;43.226;27.858;2024-01-11T05:55:35;145308.72;;;-3.06;100.00
6034;BME280;3045;43.226;27.858;2024-01-11T05:58:03;145334.94;;;-2.96;100.00
6034;BME280;3045;43.226;27.858;2024-01-11T06:00:30;145348.69;;;-2.90;100.00
6034;BME280;3045;43.226;27.858;2024-01-11T06:02:57;145378.69;;;-2.78;100.00
6034;BME280;3045;43.226;27.858;2024-01-11T06:05:25;145403.69;;;-2.68;100.00
6034;BME280;3045;43.226;27.858;2024-01-11T06:07:53;145447.38;;;-2.50;100.00
6034;BME280;3045;43.226;27.858;2024-01-11T06:10:20;145424.94;;;-2.59;100.00
6034;BME280;3045;43.226;27.858;2024-01-11T06:12:47;145429.91;;;-2.57;100.00
6034;BME280;3045;43.226;27.858;2024-01-11T06:15:15;145443.66;;;-2.52;100.00
6034;BME280;3045;43.226;27.858;2024-01-11T06:17:42;145518.66;;;-2.21;100.00
6034;BME280;3045;43.226;27.858;2024-01-11T06:20:10;145539.91;;;-2.13;100.00
6034;BME280;3045;43.226;27.858;2024-01-11T06:22:37;145592.44;;;-1.92;100.00
6034;BME280;3045;43.226;27.858;2024-01-11T06:25:06;145616.16;;;-1.82;100.00
6034;BME280;3045;43.226;27.858;2024-01-11T06:27:33;145658.69;;;-1.65;100.00
6034;BME280;3045;43.226;27.858;2024-01-11T06:30:00;145602.44;;;-1.88;100.00
6034;BME280;3045;43.226;27.858;2024-01-11T06:32:27;145666.22;;;-1.62;100.00
6034;BME280;3045;43.226;27.858;2024-01-11T06:34:54;145696.25;;;-1.50;100.00
6034;BME280;3045;43.226;27.858;2024-01-11T06:37:21;145788.81;;;-1.12;100.00
6034;BME280;3045;43.226;27.858;2024-01-11T06:39:50;145890.19;;;-0.71;100.00
6034;BME280;3045;43.226;27.858;2024-01-11T06:42:18;145949.06;;;-0.48;100.00
6034;BME280;3045;43.226;27.858;2024-01-11T06:44:45;145971.59;;;-0.38;99.38
6034;BME280;3045;43.226;27.858;2024-01-11T06:47:12;145971.59;;;-0.38;95.13
6034;BME280;3045;43.226;27.858;2024-01-11T06:49:41;145831.38;;;-0.95;97.07
6034;BME280;3045;43.226;27.858;2024-01-11T06:52:08;145877.66;;;-0.76;97.98
6034;BME280;3045;43.226;27.858;2024-01-11T06:54:35;145745.03;;;-1.30;100.00
6034;BME280;3045;43.226;27.858;2024-01-11T06:57:02;145786.31;;;-1.13;100.00
6034;BME280;3045;43.226;27.858;2024-01-11T06:59:31;145813.88;;;-1.02;100.00
6034;BME280;3045;43.226;27.858;2024-01-11T07:01:58;145866.44;;;-0.81;100.00
6034;BME280;3045;43.226;27.858;2024-01-11T07:04:25;145860.16;;;-0.83;100.00
6034;BME280;3045;43.226;27.858;2024-01-11T07:06:52;145870.16;;;-0.79;100.00
6034;BME280;3045;43.226;27.858;2024-01-11T07:09:19;145922.75;;;-0.58;100.00
6034;BME280;3045;43.226;27.858;2024-01-11T07:11:46;146045.50;;;-0.09;100.00
6034;BME280;3045;43.226;27.858;2024-01-11T07:14:13;146258.47;;;0.77;98.39
6034;BME280;3045;43.226;27.858;2024-01-11T07:16:42;146490.47;;;1.71;89.33
6034;BME280;3045;43.226;27.858;2024-01-11T07:19:11;146628.53;;;2.26;79.66
6034;BME280;3045;43.226;27.858;2024-01-11T07:21:38;146784.19;;;2.89;76.55
6034;BME280;3045;43.226;27.858;2024-01-11T07:24:05;146916.13;;;3.42;71.10
6034;BME280;3045;43.226;27.858;2024-01-11T07:26:32;147085.81;;;4.10;66.15
6034;BME280;3045;43.226;27.858;2024-01-11T07:28:59;147103.38;;;4.18;65.32
6034;BME280;3045;43.226;27.858;2024-01-11T07:31:26;147012.91;;;3.81;65.00
6034;BME280;3045;43.226;27.858;2024-01-11T07:33:56;146888.47;;;3.31;66.82
6034;BME280;3045;43.226;27.858;2024-01-11T07:36:23;146850.78;;;3.16;67.05
6034;BME280;3045;43.226;27.858;2024-01-11T07:38:50;146909.81;;;3.40;66.39
6034;BME280;3045;43.226;27.858;2024-01-11T07:41:18;146989.00;;;3.72;66.10
6034;BME280;3045;43.226;27.858;2024-01-11T07:43:45;147019.16;;;3.84;66.02
6034;BME280;3045;43.226;27.858;2024-01-11T07:46:12;147176.31;;;4.47;63.14
6034;BME280;3045;43.226;27.858;2024-01-11T07:48:39;147373.81;;;5.26;59.86
6034;BME280;3045;43.226;27.858;2024-01-11T07:51:07;147522.34;;;5.86;58.75
6034;BME280;3045;43.226;27.858;2024-01-11T07:53:34;147526.19;;;5.87;57.62
6034;BME280;3045;43.226;27.858;2024-01-11T07:56:01;147648.41;;;6.36;56.69
6034;BME280;3045;43.226;27.858;2024-01-11T07:58:28;147633.25;;;6.30;55.22
6034;BME280;3045;43.226;27.858;2024-01-11T08:00:55;147729.00;;;6.69;55.42
6034;BME280;3045;43.226;27.858;2024-01-11T08:03:22;147513.56;;;5.82;55.08
6034;BME280;3045;43.226;27.858;2024-01-11T08:05:49;147611.84;;;6.22;54.51
6034;BME280;3045;43.226;27.858;2024-01-11T08:08:18;147478.34;;;5.68;54.34
6034;BME280;3045;43.226;27.858;2024-01-11T08:10:45;147287.03;;;4.91;57.20
6034;BME280;3045;43.226;27.858;2024-01-11T08:13:12;147323.50;;;5.06;55.51
6034;BME280;3045;43.226;27.858;2024-01-11T08:15:39;147326.03;;;5.07;57.33
6034;BME280;3045;43.226;27.858;2024-01-11T08:18:07;147435.53;;;5.51;55.96
6034;BME280;3045;43.226;27.858;2024-01-11T08:20:34;147480.81;;;5.69;55.18
6034;BME280;3045;43.226;27.858;2024-01-11T08:23:01;147454.41;;;5.59;55.06
6034;BME280;3045;43.226;27.858;2024-01-11T08:25:30;147453.13;;;5.58;54.88
6034;BME280;3045;43.226;27.858;2024-01-11T08:27:57;147480.81;;;5.69;54.83
6034;BME280;3045;43.226;27.858;2024-01-11T08:30:24;147440.53;;;5.53;54.88
6034;BME280;3045;43.226;27.858;2024-01-11T08:32:51;147416.59;;;5.43;55.40
6034;BME280;3045;43.226;27.858;2024-01-11T08:35:18;147521.13;;;5.85;54.50
6034;BME280;3045;43.226;27.858;2024-01-11T08:37:46;147512.28;;;5.82;54.34
6034;BME280;3045;43.226;27.858;2024-01-11T08:40:13;147518.63;;;5.84;54.52
6034;BME280;3045;43.226;27.858;2024-01-11T08:42:42;147483.34;;;5.70;54.72
6034;BME280;3045;43.226;27.858;2024-01-11T08:45:10;147478.34;;;5.68;53.71
6034;BME280;3045;43.226;27.858;2024-01-11T08:47:43;147450.59;;;5.57;53.81
6034;BME280;3045;43.226;27.858;2024-01-11T08:50:12;147487.13;;;5.72;53.76
6034;BME280;3045;43.226;27.858;2024-01-11T08:52:40;147744.09;;;6.75;51.95
6034;BME280;3045;43.226;27.858;2024-01-11T08:55:08;147919.31;;;7.45;50.90
6034;BME280;3045;43.226;27.858;2024-01-11T08:57:35;148302.91;;;8.99;47.85
6034;BME280;3045;43.226;27.858;2024-01-11T09:00:05;148265.00;;;8.84;47.90
6034;BME280;3045;43.226;27.858;2024-01-11T09:02:32;148424.09;;;9.47;47.10
6034;BME280;3045;43.226;27.858;2024-01-11T09:05:01;148694.56;;;10.56;46.46
6034;BME280;3045;43.226;27.858;2024-01-11T09:07:30;148708.44;;;10.61;44.17
6034;BME280;3045;43.226;27.858;2024-01-11T09:09:58;148766.59;;;10.84;43.58
6034;BME280;3045;43.226;27.858;2024-01-11T09:12:25;148843.75;;;11.15;42.31
6034;BME280;3045;43.226;27.858;2024-01-11T09:14:52;148550.41;;;9.98;42.98
6034;BME280;3045;43.226;27.858;2024-01-11T09:17:21;148408.97;;;9.41;44.18
6034;BME280;3045;43.226;27.858;2024-01-11T09:19:49;148265.00;;;8.84;46.15
6034;BME280;3045;43.226;27.858;2024-01-11T09:22:16;148196.88;;;8.56;44.29
6034;BME280;3045;43.226;27.858;2024-01-11T09:24:43;148232.19;;;8.70;45.11
6034;BME280;3045;43.226;27.858;2024-01-11T09:27:10;148325.63;;;9.08;44.91
6034;BME280;3045;43.226;27.858;2024-01-11T09:29:42;148408.97;;;9.41;44.61
6034;BME280;3045;43.226;27.858;2024-01-11T09:32:09;148432.94;;;9.51;44.62
6034;BME280;3045;43.226;27.858;2024-01-11T09:34:38;148426.63;;;9.48;44.47
6034;BME280;3045;43.226;27.858;2024-01-11T09:37:05;148224.63;;;8.67;45.52
6034;BME280;3045;43.226;27.858;2024-01-11T09:39:32;147810.91;;;7.02;49.18
6034;BME280;3045;43.226;27.858;2024-01-11T09:42:06;147702.53;;;6.58;51.08
6034;BME280;3045;43.226;27.858;2024-01-11T09:44:33;147964.72;;;7.63;50.20
6034;BME280;3045;43.226;27.858;2024-01-11T09:47:01;148213.28;;;8.63;49.27
6034;BME280;3045;43.226;27.858;2024-01-11T09:49:29;148477.16;;;9.69;46.24
6034;BME280;3045;43.226;27.858;2024-01-11T09:52:00;148669.25;;;10.45;45.51
6034;BME280;3045;43.226;27.858;2024-01-11T09:54:28;148823.50;;;11.07;44.26
6034;BME280;3045;43.226;27.858;2024-01-11T09:56:58;149128.44;;;12.29;41.79
6034;BME280;3045;43.226;27.858;2024-01-11T09:59:26;149248.72;;;12.77;41.56
6034;BME280;3045;43.226;27.858;2024-01-11T10:01:53;149298.09;;;12.97;40.95
6034;BME280;3045;43.226;27.858;2024-01-11T10:04:21;149427.38;;;13.48;37.98
6034;BME280;3045;43.226;27.858;2024-01-11T10:06:49;149417.22;;;13.44;37.82
6034;BME280;3045;43.226;27.858;2024-01-11T10:09:18;149453.94;;;13.59;38.06
6034;BME280;3045;43.226;27.858;2024-01-11T10:11:46;149275.31;;;12.88;38.14
6034;BME280;3045;43.226;27.858;2024-01-11T10:14:14;149560.41;;;14.01;37.01
6034;BME280;3045;43.226;27.858;2024-01-11T10:16:42;149612.34;;;14.22;36.76
6034;BME280;3045;43.226;27.858;2024-01-11T10:19:09;149583.22;;;14.10;36.75
6034;BME280;3045;43.226;27.858;2024-01-11T10:21:39;149434.94;;;13.51;36.96
6034;BME280;3045;43.226;27.858;2024-01-11T10:24:06;149366.53;;;13.24;38.16
6034;BME280;3045;43.226;27.858;2024-01-11T10:26:35;149404.56;;;13.39;39.22
6034;BME280;3045;43.226;27.858;2024-01-11T10:29:05;149341.22;;;13.14;39.03
6034;BME280;3045;43.226;27.858;2024-01-11T10:31:36;149323.44;;;13.07;39.54
6034;BME280;3045;43.226;27.858;2024-01-11T10:34:04;149328.50;;;13.09;39.97
6034;BME280;3045;43.226;27.858;2024-01-11T10:36:34;149480.59;;;13.69;38.85
6034;BME280;3045;43.226;27.858;2024-01-11T10:39:02;149621.28;;;14.26;37.88
6034;BME280;3045;43.226;27.858;2024-01-11T10:41:38;149540.13;;;13.93;37.90
6034;BME280;3045;43.226;27.858;2024-01-11T10:44:08;149404.56;;;13.39;39.01
6034;BME280;3045;43.226;27.858;2024-01-11T10:46:40;149484.34;;;13.71;38.55
6034;BME280;3045;43.226;27.858;2024-01-11T10:49:08;149460.31;;;13.61;38.24
6034;BME280;3045;43.226;27.858;2024-01-11T10:51:39;149408.38;;;13.41;38.22
6034;BME280;3045;43.226;27.858;2024-01-11T10:54:06;149450.19;;;13.57;38.71
6034;BME280;3045;43.226;27.858;2024-01-11T10:56:34;149484.34;;;13.71;38.86
6034;BME280;3045;43.226;27.858;2024-01-11T10:59:06;149590.81;;;14.13;37.90
6034;BME280;3045;43.226;27.858;2024-01-11T11:01:33;149868.59;;;15.24;36.21
6034;BME280;3045;43.226;27.858;2024-01-11T11:04:01;149933.34;;;15.50;34.81
6034;BME280;3045;43.226;27.858;2024-01-11T11:06:30;149881.28;;;15.29;35.93
6034;BME280;3045;43.226;27.858;2024-01-11T11:08:58;150070.41;;;16.05;34.79
6034;BME280;3045;43.226;27.858;2024-01-11T11:11:26;149967.63;;;15.64;35.36
6034;BME280;3045;43.226;27.858;2024-01-11T11:13:55;149370.34;;;13.25;35.77
6034;BME280;3045;43.226;27.858;2024-01-11T11:16:27;149017.06;;;11.84;38.39
6034;BME280;3045;43.226;27.858;2024-01-11T11:18:54;148823.50;;;11.07;39.65
6034;BME280;3045;43.226;27.858;2024-01-11T11:21:22;149023.41;;;11.87;40.36
6034;BME280;3045;43.226;27.858;2024-01-11T11:23:50;149146.16;;;12.36;39.45
6034;BME280;3045;43.226;27.858;2024-01-11T11:26:17;149306.97;;;13.00;38.89
6034;BME280;3045;43.226;27.858;2024-01-11T11:28:44;149621.28;;;14.26;36.71
6034;BME280;3045;43.226;27.858;2024-01-11T11:31:11;149589.59;;;14.13;36.73
6034;BME280;3045;43.226;27.858;2024-01-11T11:33:40;149527.44;;;13.88;37.00
6034;BME280;3045;43.226;27.858;2024-01-11T11:36:12;149177.81;;;12.49;38.62
6034;BME280;3045;43.226;27.858;2024-01-11T11:38:39;148857.63;;;11.21;40.41
6034;BME280;3045;43.226;27.858;2024-01-11T11:41:07;148750.13;;;10.78;41.53
6034;BME280;3045;43.226;27.858;2024-01-11T11:43:34;148560.50;;;10.02;43.50
6034;BME280;3045;43.226;27.858;2024-01-11T11:46:02;148342.03;;;9.14;44.88
6034;BME280;3045;43.226;27.858;2024-01-11T11:48:50;148155.25;;;8.40;45.80
6034;BME280;3045;43.226;27.858;2024-01-11T11:51:21;148013.91;;;7.83;47.31
6034;BME280;3045;43.226;27.858;2024-01-11T11:53:49;147954.66;;;7.59;48.80
6034;BME280;3045;43.226;27.858;2024-01-11T11:56:18;147894.09;;;7.35;49.93
6034;BME280;3045;43.226;27.858;2024-01-11T11:58:46;147829.78;;;7.09;51.38
6034;BME280;3045;43.226;27.858;2024-01-11T12:01:14;147750.44;;;6.77;52.67
6034;BME280;3045;43.226;27.858;2024-01-11T12:03:43;147712.59;;;6.62;53.22
6034;BME280;3045;43.226;27.858;2024-01-11T12:06:16;147644.59;;;6.35;52.69
6034;BME280;3045;43.226;27.858;2024-01-11T12:08:45;147649.59;;;6.37;53.67
6034;BME280;3045;43.226;27.858;2024-01-11T12:11:17;147635.78;;;6.31;54.36
6034;BME280;3045;43.226;27.858;2024-01-11T12:13:46;147567.75;;;6.04;54.04
6034;BME280;3045;43.226;27.858;2024-01-11T12:16:13;147546.34;;;5.95;54.66
6034;BME280;3045;43.226;27.858;2024-01-11T12:18:40;147526.19;;;5.87;54.41
6034;BME280;3045;43.226;27.858;2024-01-11T12:21:08;147490.88;;;5.73;55.19
6034;BME280;3045;43.226;27.858;2024-01-11T12:23:38;147579.09;;;6.09;55.28
6034;BME280;3045;43.226;27.858;2024-01-11T12:26:06;147579.09;;;6.09;55.71
6034;BME280;3045;43.226;27.858;2024-01-11T12:28:38;147620.66;;;6.25;58.20
6034;BME280;3045;43.226;27.858;2024-01-11T12:31:07;147563.97;;;6.03;58.77
6034;BME280;3045;43.226;27.858;2024-01-11T12:33:34;147591.69;;;6.14;60.90
6034;BME280;3045;43.226;27.858;2024-01-11T12:36:05;147603.03;;;6.18;61.76
6034;BME280;3045;43.226;27.858;2024-01-11T12:38:34;147637.06;;;6.32;62.81
6034;BME280;3045;43.226;27.858;2024-01-11T12:41:02;147611.84;;;6.22;61.49
6034;BME280;3045;43.226;27.858;2024-01-11T12:43:30;147688.69;;;6.53;59.22
6034;BME280;3045;43.226;27.858;2024-01-11T12:45:57;147707.59;;;6.60;56.20
6034;BME280;3045;43.226;27.858;2024-01-11T12:48:24;147731.53;;;6.70;55.61
6034;BME280;3045;43.226;27.858;2024-01-11T12:50:52;147721.47;;;6.66;53.56
6034;BME280;3045;43.226;27.858;2024-01-11T12:53:20;147697.50;;;6.56;53.76
6034;BME280;3045;43.226;27.858;2024-01-11T12:55:48;147621.91;;;6.26;53.27
6034;BME280;3045;43.226;27.858;2024-01-11T12:58:21;147678.63;;;6.49;52.88
6034;BME280;3045;43.226;27.858;2024-01-11T13:00:49;147697.50;;;6.56;53.68